sensor_id;sensor_type;location;lat;lon;timestamp;pressure;altitude;pressure_sealevel;temperature;humidity
60345;BME280;46188;52.324;8.032;2023-05-22T00:01:22;100390.03;;;17.63;100.00
60345;BME280;46188;52.324;8.032;2023-05-22T00:03:50;100381.16;;;17.61;100.00
60345;BME280;46188;52.324;8.032;2023-05-22T00:06:17;100381.16;;;17.62;100.00
60345;BME280;46188;52.324;8.032;2023-05-22T00:08:42;100383.91;;;17.58;100.00
60345;BME280;46188;52.324;8.032;2023-05-22T00:11:07;100371.47;;;17.58;100.00
60345;BME280;46188;52.324;8.032;2023-05-22T00:13:33;100376.72;;;17.63;100.00
60345;BME280;46188;52.324;8.032;2023-05-22T00:15:58;100377.72;;;17.56;100.00
60345;BME280;46188;52.324;8.032;2023-05-22T00:18:23;100374.28;;;17.49;100.00
60345;BME280;46188;52.324;8.032;2023-05-22T00:20:51;100373.44;;;17.47;100.00
60345;BME280;46188;52.324;8.032;2023-05-22T00:23:17;100386.78;;;17.47;100.00
60345;BME280;46188;52.324;8.032;2023-05-22T00:25:42;100375.22;;;17.48;100.00
60345;BME280;46188;52.324;8.032;2023-05-22T00:28:07;100368.94;;;17.50;100.00
60345;BME280;46188;52.324;8.032;2023-05-22T00:30:33;100370.59;;;17.58;100.00
60345;BME280;46188;52.324;8.032;2023-05-22T00:32:58;100366.06;;;17.63;100.00
60345;BME280;46188;52.324;8.032;2023-05-22T00:35:24;100371.34;;;17.64;100.00
60345;BME280;46188;52.324;8.032;2023-05-22T00:37:49;100369.63;;;17.62;100.00
60345;BME280;46188;52.324;8.032;2023-05-22T00:40:14;100372.31;;;17.60;100.00
60345;BME280;46188;52.324;8.032;2023-05-22T00:42:44;100379.50;;;17.55;100.00
60345;BME280;46188;52.324;8.032;2023-05-22T00:45:11;100377.78;;;17.52;100.00
60345;BME280;46188;52.324;8.032;2023-05-22T00:47:37;100380.41;;;17.54;100.00
60345;BME280;46188;52.324;8.032;2023-05-22T00:50:04;100383.06;;;17.54;100.00
60345;BME280;46188;52.324;8.032;2023-05-22T00:52:30;100389.38;;;17.50;100.00
60345;BME280;46188;52.324;8.032;2023-05-22T00:54:55;100388.53;;;17.48;100.00
60345;BME280;46188;52.324;8.032;2023-05-22T00:57:21;100392.09;;;17.48;100.00
60345;BME280;46188;52.324;8.032;2023-05-22T00:59:47;100384.97;;;17.49;100.00
60345;BME280;46188;52.324;8.032;2023-05-22T01:02:13;100392.84;;;17.55;100.00
60345;BME280;46188;52.324;8.032;2023-05-22T01:04:45;100397.34;;;17.53;100.00
60345;BME280;46188;52.324;8.032;2023-05-22T01:07:12;100387.75;;;17.43;100.00
60345;BME280;46188;52.324;8.032;2023-05-22T01:09:38;100387.63;;;17.49;100.00
60345;BME280;46188;52.324;8.032;2023-05-22T01:12:23;100391.16;;;17.51;100.00
60345;BME280;46188;52.324;8.032;2023-05-22T01:15:13;100385.94;;;17.45;100.00
60345;BME280;46188;52.324;8.032;2023-05-22T01:18:06;100372.66;;;17.42;100.00
60345;BME280;46188;52.324;8.032;2023-05-22T01:20:39;100382.47;;;17.40;100.00
60345;BME280;46188;52.324;8.032;2023-05-22T01:23:26;100395.78;;;17.41;100.00
60345;BME280;46188;52.324;8.032;2023-05-22T01:26:17;100387.69;;;17.44;100.00
60345;BME280;46188;52.324;8.032;2023-05-22T01:29:00;100378.03;;;17.39;100.00
60345;BME280;46188;52.324;8.032;2023-05-22T01:31:30;100365.94;;;17.21;100.00
60345;BME280;46188;52.324;8.032;2023-05-22T01:34:01;100375.84;;;17.12;100.00
60345;BME280;46188;52.324;8.032;2023-05-22T01:36:30;100368.09;;;17.00;100.00
60345;BME280;46188;52.324;8.032;2023-05-22T01:38:57;100369.94;;;16.96;100.00
60345;BME280;46188;52.324;8.032;2023-05-22T01:41:26;100360.16;;;16.95;100.00
60345;BME280;46188;52.324;8.032;2023-05-22T01:43:53;100363.81;;;16.91;100.00
60345;BME280;46188;52.324;8.032;2023-05-22T01:46:25;100349.63;;;16.89;100.00
60345;BME280;46188;52.324;8.032;2023-05-22T01:48:50;100375.41;;;16.86;100.00
60345;BME280;46188;52.324;8.032;2023-05-22T01:54:08;100375.50;;;16.78;100.00
60345;BME280;46188;52.324;8.032;2023-05-22T01:59:36;100362.38;;;16.67;100.00
60345;BME280;46188;52.324;8.032;2023-05-22T02:02:05;100354.28;;;16.75;100.00
60345;BME280;46188;52.324;8.032;2023-05-22T02:04:35;100349.00;;;16.72;100.00
60345;BME280;46188;52.324;8.032;2023-05-22T02:07:02;100329.56;;;16.67;100.00
60345;BME280;46188;52.324;8.032;2023-05-22T02:09:29;100318.94;;;16.65;100.00
60345;BME280;46188;52.324;8.032;2023-05-22T02:11:56;100303.06;;;16.59;100.00
60345;BME280;46188;52.324;8.032;2023-05-22T02:14:22;100310.28;;;16.52;100.00
60345;BME280;46188;52.324;8.032;2023-05-22T02:16:47;100292.47;;;16.56;100.00
60345;BME280;46188;52.324;8.032;2023-05-22T02:19:14;100295.09;;;16.59;100.00
60345;BME280;46188;52.324;8.032;2023-05-22T02:21:39;100296.97;;;16.52;100.00
60345;BME280;46188;52.324;8.032;2023-05-22T02:24:04;100288.94;;;16.55;100.00
60345;BME280;46188;52.324;8.032;2023-05-22T02:26:30;100288.13;;;16.50;100.00
60345;BME280;46188;52.324;8.032;2023-05-22T02:28:55;100287.25;;;16.48;100.00
60345;BME280;46188;52.324;8.032;2023-05-22T02:31:20;100286.47;;;16.43;100.00
60345;BME280;46188;52.324;8.032;2023-05-22T02:33:46;100281.09;;;16.46;100.00
60345;BME280;46188;52.324;8.032;2023-05-22T02:36:12;100273.13;;;16.45;100.00
60345;BME280;46188;52.324;8.032;2023-05-22T02:38:38;100291.94;;;16.34;100.00
60345;BME280;46188;52.324;8.032;2023-05-22T02:41:04;100274.13;;;16.39;100.00
60345;BME280;46188;52.324;8.032;2023-05-22T02:43:29;100268.81;;;16.39;100.00
60345;BME280;46188;52.324;8.032;2023-05-22T02:45:54;100279.38;;;16.44;100.00
60345;BME280;46188;52.324;8.032;2023-05-22T02:48:20;100273.19;;;16.41;100.00
60345;BME280;46188;52.324;8.032;2023-05-22T02:50:45;100271.47;;;16.39;100.00
60345;BME280;46188;52.324;8.032;2023-05-22T02:53:12;100262.66;;;16.35;100.00
60345;BME280;46188;52.324;8.032;2023-05-22T02:55:42;100266.22;;;16.34;100.00
60345;BME280;46188;52.324;8.032;2023-05-22T02:58:10;100264.41;;;16.36;100.00
60345;BME280;46188;52.324;8.032;2023-05-22T03:00:39;100257.44;;;16.29;100.00
60345;BME280;46188;52.324;8.032;2023-05-22T03:03:04;100249.44;;;16.29;100.00
60345;BME280;46188;52.324;8.032;2023-05-22T03:05:31;100248.50;;;16.32;100.00
60345;BME280;46188;52.324;8.032;2023-05-22T03:07:57;100250.28;;;16.31;100.00
60345;BME280;46188;52.324;8.032;2023-05-22T03:10:22;100243.19;;;16.32;100.00
60345;BME280;46188;52.324;8.032;2023-05-22T03:12:48;100256.59;;;16.27;100.00
60345;BME280;46188;52.324;8.032;2023-05-22T03:15:16;100250.25;;;16.34;100.00
60345;BME280;46188;52.324;8.032;2023-05-22T03:17:41;100258.22;;;16.36;100.00
60345;BME280;46188;52.324;8.032;2023-05-22T03:20:07;100267.97;;;16.37;100.00
60345;BME280;46188;52.324;8.032;2023-05-22T03:22:32;100265.22;;;16.40;100.00
60345;BME280;46188;52.324;8.032;2023-05-22T03:24:58;100267.94;;;16.38;100.00
60345;BME280;46188;52.324;8.032;2023-05-22T03:27:23;100266.22;;;16.34;100.00
60345;BME280;46188;52.324;8.032;2023-05-22T03:29:48;100267.88;;;16.40;100.00
60345;BME280;46188;52.324;8.032;2023-05-22T03:32:13;100268.72;;;16.45;100.00
60345;BME280;46188;52.324;8.032;2023-05-22T03:34:38;100265.13;;;16.46;100.00
60345;BME280;46188;52.324;8.032;2023-05-22T03:37:04;100268.75;;;16.42;100.00
60345;BME280;46188;52.324;8.032;2023-05-22T03:39:29;100270.59;;;16.38;100.00
60345;BME280;46188;52.324;8.032;2023-05-22T03:41:54;100263.59;;;16.31;100.00
60345;BME280;46188;52.324;8.032;2023-05-22T03:44:20;100260.94;;;16.31;100.00
60345;BME280;46188;52.324;8.032;2023-05-22T03:46:45;100264.56;;;16.27;100.00
60345;BME280;46188;52.324;8.032;2023-05-22T03:49:10;100269.06;;;16.23;100.00
60345;BME280;46188;52.324;8.032;2023-05-22T03:51:35;100261.88;;;16.29;100.00
60345;BME280;46188;52.324;8.032;2023-05-22T03:54:01;100261.81;;;16.32;100.00
60345;BME280;46188;52.324;8.032;2023-05-22T03:56:26;100257.41;;;16.31;100.00
60345;BME280;46188;52.324;8.032;2023-05-22T03:58:51;100260.13;;;16.26;100.00
60345;BME280;46188;52.324;8.032;2023-05-22T04:01:16;100257.53;;;16.23;100.00
60345;BME280;46188;52.324;8.032;2023-05-22T04:03:42;100256.69;;;16.21;100.00
60345;BME280;46188;52.324;8.032;2023-05-22T04:06:07;100259.22;;;16.29;100.00
60345;BME280;46188;52.324;8.032;2023-05-22T04:08:32;100258.25;;;16.33;100.00
60345;BME280;46188;52.324;8.032;2023-05-22T04:10:57;100252.88;;;16.36;100.00
60345;BME280;46188;52.324;8.032;2023-05-22T04:13:23;100250.19;;;16.39;100.00
60345;BME280;46188;52.324;8.032;2023-05-22T04:15:48;100243.94;;;16.40;100.00
60345;BME280;46188;52.324;8.032;2023-05-22T04:18:14;100247.44;;;16.45;100.00
60345;BME280;46188;52.324;8.032;2023-05-22T04:20:39;100253.63;;;16.46;100.00
60345;BME280;46188;52.324;8.032;2023-05-22T04:23:05;100246.56;;;16.43;100.00
60345;BME280;46188;52.324;8.032;2023-05-22T04:25:31;100246.56;;;16.43;100.00
60345;BME280;46188;52.324;8.032;2023-05-22T04:27:58;100251.00;;;16.42;100.00
60345;BME280;46188;52.324;8.032;2023-05-22T04:30:27;100242.09;;;16.45;100.00
60345;BME280;46188;52.324;8.032;2023-05-22T04:32:52;100242.94;;;16.49;100.00
60345;BME280;46188;52.324;8.032;2023-05-22T04:35:17;100244.66;;;16.50;100.00
60345;BME280;46188;52.324;8.032;2023-05-22T04:37:43;100252.56;;;16.54;100.00
60345;BME280;46188;52.324;8.032;2023-05-22T04:40:11;100250.78;;;16.55;100.00
60345;BME280;46188;52.324;8.032;2023-05-22T04:42:40;100243.78;;;16.51;100.00
60345;BME280;46188;52.324;8.032;2023-05-22T04:45:07;100241.13;;;16.51;100.00
60345;BME280;46188;52.324;8.032;2023-05-22T04:47:32;100236.78;;;16.45;100.00
60345;BME280;46188;52.324;8.032;2023-05-22T04:49:58;100237.63;;;16.47;100.00
60345;BME280;46188;52.324;8.032;2023-05-22T04:52:24;100248.31;;;16.44;100.00
60345;BME280;46188;52.324;8.032;2023-05-22T04:54:50;100246.50;;;16.46;100.00
60345;BME280;46188;52.324;8.032;2023-05-22T04:57:16;100251.03;;;16.41;100.00
60345;BME280;46188;52.324;8.032;2023-05-22T04:59:42;100245.72;;;16.41;100.00
60345;BME280;46188;52.324;8.032;2023-05-22T05:02:08;100244.81;;;16.42;100.00
60345;BME280;46188;52.324;8.032;2023-05-22T05:04:33;100246.56;;;16.41;100.00
60345;BME280;46188;52.324;8.032;2023-05-22T05:06:58;100249.19;;;16.45;100.00
60345;BME280;46188;52.324;8.032;2023-05-22T05:09:24;100241.13;;;16.49;100.00
60345;BME280;46188;52.324;8.032;2023-05-22T05:11:50;100241.13;;;16.51;100.00
60345;BME280;46188;52.324;8.032;2023-05-22T05:14:16;100245.53;;;16.53;100.00
60345;BME280;46188;52.324;8.032;2023-05-22T05:16:41;100247.22;;;16.57;100.00
60345;BME280;46188;52.324;8.032;2023-05-22T05:19:07;100250.72;;;16.59;100.00
60345;BME280;46188;52.324;8.032;2023-05-22T05:21:32;100252.38;;;16.67;100.00
60345;BME280;46188;52.324;8.032;2023-05-22T05:23:57;100247.03;;;16.68;100.00
60345;BME280;46188;52.324;8.032;2023-05-22T05:26:23;100246.09;;;16.69;100.00
60345;BME280;46188;52.324;8.032;2023-05-22T05:28:49;100232.75;;;16.72;100.00
60345;BME280;46188;52.324;8.032;2023-05-22T05:31:14;100227.38;;;16.75;100.00
60345;BME280;46188;52.324;8.032;2023-05-22T05:33:39;100222.88;;;16.79;100.00
60345;BME280;46188;52.324;8.032;2023-05-22T05:36:05;100231.66;;;16.83;100.00
60345;BME280;46188;52.324;8.032;2023-05-22T05:38:30;100221.91;;;16.85;100.00
60345;BME280;46188;52.324;8.032;2023-05-22T05:40:56;100234.28;;;16.87;100.00
60345;BME280;46188;52.324;8.032;2023-05-22T05:43:21;100233.44;;;16.84;100.00
60345;BME280;46188;52.324;8.032;2023-05-22T05:45:47;100237.91;;;16.83;100.00
60345;BME280;46188;52.324;8.032;2023-05-22T05:48:12;100233.44;;;16.84;100.00
60345;BME280;46188;52.324;8.032;2023-05-22T05:50:37;100239.63;;;16.84;100.00
60345;BME280;46188;52.324;8.032;2023-05-22T05:53:03;100238.72;;;16.88;100.00
60345;BME280;46188;52.324;8.032;2023-05-22T05:55:28;100236.97;;;16.86;100.00
60345;BME280;46188;52.324;8.032;2023-05-22T05:57:54;100233.38;;;16.90;100.00
60345;BME280;46188;52.324;8.032;2023-05-22T06:00:19;100234.16;;;16.95;100.00
60345;BME280;46188;52.324;8.032;2023-05-22T06:02:44;100231.44;;;16.98;100.00
60345;BME280;46188;52.324;8.032;2023-05-22T06:05:10;100227.88;;;16.97;100.00
60345;BME280;46188;52.324;8.032;2023-05-22T06:07:35;100243.84;;;16.97;100.00
60345;BME280;46188;52.324;8.032;2023-05-22T06:10:04;100239.44;;;16.96;100.00
60345;BME280;46188;52.324;8.032;2023-05-22T06:12:30;100238.50;;;16.99;100.00
60345;BME280;46188;52.324;8.032;2023-05-22T06:14:55;100243.88;;;16.96;100.00
60345;BME280;46188;52.324;8.032;2023-05-22T06:17:21;100238.38;;;17.05;100.00
60345;BME280;46188;52.324;8.032;2023-05-22T06:19:46;100215.28;;;17.06;100.00
60345;BME280;46188;52.324;8.032;2023-05-22T06:22:11;100219.72;;;17.07;100.00
60345;BME280;46188;52.324;8.032;2023-05-22T06:24:36;100219.66;;;17.10;100.00
60345;BME280;46188;52.324;8.032;2023-05-22T06:27:02;100212.41;;;17.18;100.00
60345;BME280;46188;52.324;8.032;2023-05-22T06:29:27;100210.50;;;17.23;100.00
60345;BME280;46188;52.324;8.032;2023-05-22T06:31:52;100214.88;;;17.26;100.00
60345;BME280;46188;52.324;8.032;2023-05-22T06:34:17;100221.00;;;17.29;100.00
60345;BME280;46188;52.324;8.032;2023-05-22T06:36:43;100232.56;;;17.30;100.00
60345;BME280;46188;52.324;8.032;2023-05-22T06:39:09;100235.16;;;17.34;100.00
60345;BME280;46188;52.324;8.032;2023-05-22T06:41:35;100233.19;;;17.43;100.00
60345;BME280;46188;52.324;8.032;2023-05-22T06:44:00;100228.72;;;17.45;100.00
60345;BME280;46188;52.324;8.032;2023-05-22T06:46:26;100240.09;;;17.53;100.00
60345;BME280;46188;52.324;8.032;2023-05-22T06:48:52;100238.97;;;17.63;100.00
60345;BME280;46188;52.324;8.032;2023-05-22T06:51:18;100252.09;;;17.74;100.00
60345;BME280;46188;52.324;8.032;2023-05-22T06:53:43;100247.47;;;17.81;100.00
60345;BME280;46188;52.324;8.032;2023-05-22T06:56:08;100251.78;;;17.86;100.00
60345;BME280;46188;52.324;8.032;2023-05-22T06:58:34;100251.78;;;17.88;100.00
60345;BME280;46188;52.324;8.032;2023-05-22T07:00:59;100250.06;;;17.84;100.00
60345;BME280;46188;52.324;8.032;2023-05-22T07:03:24;100245.63;;;17.84;100.00
60345;BME280;46188;52.324;8.032;2023-05-22T07:05:51;100247.25;;;17.92;100.00
60345;BME280;46188;52.324;8.032;2023-05-22T07:08:17;100257.44;;;18.13;100.00
60345;BME280;46188;52.324;8.032;2023-05-22T07:10:42;100243.84;;;18.24;100.00
60345;BME280;46188;52.324;8.032;2023-05-22T07:13:07;100250.63;;;18.37;100.00
60345;BME280;46188;52.324;8.032;2023-05-22T07:15:32;100249.47;;;18.48;100.00
60345;BME280;46188;52.324;8.032;2023-05-22T07:17:58;100249.97;;;18.63;100.00
60345;BME280;46188;52.324;8.032;2023-05-22T07:20:23;100254.19;;;18.72;100.00
60345;BME280;46188;52.324;8.032;2023-05-22T07:22:50;100258.94;;;18.61;100.00
60345;BME280;46188;52.324;8.032;2023-05-22T07:25:15;100254.31;;;18.68;100.00
60345;BME280;46188;52.324;8.032;2023-05-22T07:27:40;100260.44;;;18.71;100.00
60345;BME280;46188;52.324;8.032;2023-05-22T07:30:06;100264.72;;;18.78;100.00
60345;BME280;46188;52.324;8.032;2023-05-22T07:32:32;100268.19;;;18.82;100.00
60345;BME280;46188;52.324;8.032;2023-05-22T07:34:57;100260.69;;;18.96;100.00
60345;BME280;46188;52.324;8.032;2023-05-22T07:37:22;100272.56;;;19.19;100.00
60345;BME280;46188;52.324;8.032;2023-05-22T07:39:47;100278.41;;;19.33;100.00
60345;BME280;46188;52.324;8.032;2023-05-22T07:42:13;100278.28;;;19.38;100.00
60345;BME280;46188;52.324;8.032;2023-05-22T07:44:39;100278.47;;;19.30;100.00
60345;BME280;46188;52.324;8.032;2023-05-22T07:47:04;100275.63;;;19.05;100.00
60345;BME280;46188;52.324;8.032;2023-05-22T07:49:29;100271.09;;;19.07;100.00
60345;BME280;46188;52.324;8.032;2023-05-22T07:51:55;100273.41;;;19.20;100.00
60345;BME280;46188;52.324;8.032;2023-05-22T07:54:20;100266.81;;;19.33;100.00
60345;BME280;46188;52.324;8.032;2023-05-22T07:56:46;100262.66;;;19.54;100.00
60345;BME280;46188;52.324;8.032;2023-05-22T07:59:12;100267.44;;;19.72;100.00
60345;BME280;46188;52.324;8.032;2023-05-22T08:01:38;100269.88;;;19.82;100.00
60345;BME280;46188;52.324;8.032;2023-05-22T08:04:04;100272.59;;;20.10;100.00
60345;BME280;46188;52.324;8.032;2023-05-22T08:06:29;100269.53;;;20.22;100.00
60345;BME280;46188;52.324;8.032;2023-05-22T08:08:55;100278.38;;;20.24;100.00
60345;BME280;46188;52.324;8.032;2023-05-22T08:11:20;100282.00;;;19.94;100.00
60345;BME280;46188;52.324;8.032;2023-05-22T08:13:46;100285.75;;;19.88;100.00
60345;BME280;46188;52.324;8.032;2023-05-22T08:16:11;100289.25;;;19.90;100.00
60345;BME280;46188;52.324;8.032;2023-05-22T08:18:37;100302.16;;;19.74;100.00
60345;BME280;46188;52.324;8.032;2023-05-22T08:21:02;100293.00;;;19.53;100.00
60345;BME280;46188;52.324;8.032;2023-05-22T08:23:27;100292.97;;;19.54;100.00
60345;BME280;46188;52.324;8.032;2023-05-22T08:25:54;100294.72;;;19.54;100.00
60345;BME280;46188;52.324;8.032;2023-05-22T08:28:19;100289.06;;;19.35;100.00
60345;BME280;46188;52.324;8.032;2023-05-22T08:30:45;100292.88;;;19.25;100.00
60345;BME280;46188;52.324;8.032;2023-05-22T08:33:10;100295.75;;;19.18;100.00
60345;BME280;46188;52.324;8.032;2023-05-22T08:35:35;100300.06;;;19.23;100.00
60345;BME280;46188;52.324;8.032;2023-05-22T08:38:01;100299.81;;;19.32;100.00
60345;BME280;46188;52.324;8.032;2023-05-22T08:40:33;100298.47;;;19.48;100.00
60345;BME280;46188;52.324;8.032;2023-05-22T08:42:59;100302.03;;;19.80;100.00
60345;BME280;46188;52.324;8.032;2023-05-22T08:45:24;100298.06;;;20.22;100.00
60345;BME280;46188;52.324;8.032;2023-05-22T08:47:51;100291.34;;;20.65;100.00
60345;BME280;46188;52.324;8.032;2023-05-22T08:50:19;100289.03;;;20.81;100.00
60345;BME280;46188;52.324;8.032;2023-05-22T08:52:51;100290.00;;;20.78;100.00
60345;BME280;46188;52.324;8.032;2023-05-22T08:55:21;100282.44;;;20.91;100.00
60345;BME280;46188;52.324;8.032;2023-05-22T08:57:48;100288.00;;;20.85;100.00
60345;BME280;46188;52.324;8.032;2023-05-22T09:00:14;100287.63;;;20.96;100.00
60345;BME280;46188;52.324;8.032;2023-05-22T09:02:40;100286.31;;;21.08;100.00
60345;BME280;46188;52.324;8.032;2023-05-22T09:05:07;100297.44;;;21.22;100.00
60345;BME280;46188;52.324;8.032;2023-05-22T09:07:33;100291.81;;;21.55;100.00
60345;BME280;46188;52.324;8.032;2023-05-22T09:09:58;100287.09;;;21.62;100.00
60345;BME280;46188;52.324;8.032;2023-05-22T09:12:25;100285.59;;;22.22;100.00
60345;BME280;46188;52.324;8.032;2023-05-22T09:14:51;100288.13;;;22.71;100.00
60345;BME280;46188;52.324;8.032;2023-05-22T09:17:16;100286.91;;;22.78;100.00
60345;BME280;46188;52.324;8.032;2023-05-22T09:19:43;100287.69;;;23.02;100.00
60345;BME280;46188;52.324;8.032;2023-05-22T09:22:09;100283.03;;;23.06;100.00
60345;BME280;46188;52.324;8.032;2023-05-22T09:24:41;100289.53;;;23.23;100.00
60345;BME280;46188;52.324;8.032;2023-05-22T09:27:08;100285.81;;;23.25;100.00
60345;BME280;46188;52.324;8.032;2023-05-22T09:29:51;100290.31;;;23.45;100.00
60345;BME280;46188;52.324;8.032;2023-05-22T09:32:17;100288.44;;;23.66;100.00
60345;BME280;46188;52.324;8.032;2023-05-22T09:34:43;100285.00;;;23.83;100.00
60345;BME280;46188;52.324;8.032;2023-05-22T09:37:10;100287.72;;;23.63;100.00
60345;BME280;46188;52.324;8.032;2023-05-22T09:39:43;100284.47;;;23.75;100.00
60345;BME280;46188;52.324;8.032;2023-05-22T09:42:09;100282.72;;;24.12;100.00
60345;BME280;46188;52.324;8.032;2023-05-22T09:44:39;100274.25;;;24.39;99.62
60345;BME280;46188;52.324;8.032;2023-05-22T09:47:07;100287.56;;;24.42;97.59
60345;BME280;46188;52.324;8.032;2023-05-22T09:49:40;100274.97;;;24.42;96.58
60345;BME280;46188;52.324;8.032;2023-05-22T09:52:06;100283.44;;;24.16;95.56
60345;BME280;46188;52.324;8.032;2023-05-22T09:54:33;100285.03;;;24.39;93.26
60345;BME280;46188;52.324;8.032;2023-05-22T09:56:59;100290.41;;;24.39;92.74
60345;BME280;46188;52.324;8.032;2023-05-22T09:59:26;100288.84;;;24.16;92.69
60345;BME280;46188;52.324;8.032;2023-05-22T10:01:54;100287.44;;;24.26;93.77
60345;BME280;46188;52.324;8.032;2023-05-22T10:04:21;100287.84;;;24.36;92.77
60345;BME280;46188;52.324;8.032;2023-05-22T10:06:50;100291.75;;;24.11;93.73
60345;BME280;46188;52.324;8.032;2023-05-22T10:09:16;100286.16;;;23.97;93.97
60345;BME280;46188;52.324;8.032;2023-05-22T10:11:43;100288.34;;;24.26;92.91
60345;BME280;46188;52.324;8.032;2023-05-22T10:14:08;100290.41;;;24.39;90.38
60345;BME280;46188;52.324;8.032;2023-05-22T10:16:34;100290.91;;;24.66;88.51
60345;BME280;46188;52.324;8.032;2023-05-22T10:19:02;100291.38;;;24.92;87.36
60345;BME280;46188;52.324;8.032;2023-05-22T10:21:29;100292.09;;;25.13;86.16
60345;BME280;46188;52.324;8.032;2023-05-22T10:23:58;100284.53;;;25.02;84.55
60345;BME280;46188;52.324;8.032;2023-05-22T10:26:23;100286.38;;;24.66;85.38
60345;BME280;46188;52.324;8.032;2023-05-22T10:28:56;100280.03;;;24.48;86.17
60345;BME280;46188;52.324;8.032;2023-05-22T10:31:33;100278.69;;;24.76;85.92
60345;BME280;46188;52.324;8.032;2023-05-22T10:34:06;100283.53;;;25.04;84.65
60345;BME280;46188;52.324;8.032;2023-05-22T10:39:23;100276.22;;;25.07;81.36
60345;BME280;46188;52.324;8.032;2023-05-22T10:41:54;100272.56;;;24.90;80.12
60345;BME280;46188;52.324;8.032;2023-05-22T10:44:21;100271.72;;;24.90;79.66
60345;BME280;46188;52.324;8.032;2023-05-22T10:46:49;100271.56;;;24.93;76.58
60345;BME280;46188;52.324;8.032;2023-05-22T10:49:21;100266.56;;;24.85;76.95
60345;BME280;46188;52.324;8.032;2023-05-22T10:51:48;100269.25;;;24.85;75.94
60345;BME280;46188;52.324;8.032;2023-05-22T10:54:13;100261.00;;;24.88;76.98
60345;BME280;46188;52.324;8.032;2023-05-22T10:56:38;100262.72;;;24.89;77.17
60345;BME280;46188;52.324;8.032;2023-05-22T10:59:04;100260.81;;;25.09;76.37
60345;BME280;46188;52.324;8.032;2023-05-22T11:01:31;100256.13;;;25.12;75.70
60345;BME280;46188;52.324;8.032;2023-05-22T11:06:43;100262.69;;;25.41;76.99
60345;BME280;46188;52.324;8.032;2023-05-22T11:09:26;100261.75;;;25.42;77.73
60345;BME280;46188;52.324;8.032;2023-05-22T11:12:14;100263.25;;;25.48;75.06
60345;BME280;46188;52.324;8.032;2023-05-22T11:14:40;100256.28;;;25.44;75.76
60345;BME280;46188;52.324;8.032;2023-05-22T11:17:06;100261.38;;;25.33;76.12
60345;BME280;46188;52.324;8.032;2023-05-22T11:19:31;100250.28;;;25.39;75.91
60345;BME280;46188;52.324;8.032;2023-05-22T11:22:00;100251.75;;;25.45;75.83
60345;BME280;46188;52.324;8.032;2023-05-22T11:24:32;100253.16;;;25.52;75.86
60345;BME280;46188;52.324;8.032;2023-05-22T11:27:04;100244.84;;;25.72;74.96
60345;BME280;46188;52.324;8.032;2023-05-22T11:29:30;100249.47;;;25.70;74.23
60345;BME280;46188;52.324;8.032;2023-05-22T11:31:57;100250.13;;;25.90;73.56
60345;BME280;46188;52.324;8.032;2023-05-22T11:34:23;100245.13;;;26.00;72.97
60345;BME280;46188;52.324;8.032;2023-05-22T11:36:49;100239.56;;;26.03;71.46
60345;BME280;46188;52.324;8.032;2023-05-22T11:39:16;100237.44;;;26.08;71.33
60345;BME280;46188;52.324;8.032;2023-05-22T11:41:41;100234.50;;;26.12;71.79
60345;BME280;46188;52.324;8.032;2023-05-22T11:44:07;100233.03;;;26.07;73.25
60345;BME280;46188;52.324;8.032;2023-05-22T11:46:32;100230.75;;;25.99;74.17
60345;BME280;46188;52.324;8.032;2023-05-22T11:48:58;100227.16;;;25.83;75.75
60345;BME280;46188;52.324;8.032;2023-05-22T11:51:23;100229.25;;;25.93;76.63
60345;BME280;46188;52.324;8.032;2023-05-22T11:53:48;100231.97;;;25.93;74.37
60345;BME280;46188;52.324;8.032;2023-05-22T11:56:14;100223.50;;;26.00;72.96
60345;BME280;46188;52.324;8.032;2023-05-22T11:58:39;100222.66;;;26.15;73.23
60345;BME280;46188;52.324;8.032;2023-05-22T12:01:04;100219.66;;;26.36;72.61
60345;BME280;46188;52.324;8.032;2023-05-22T12:03:30;100220.25;;;26.41;72.91
60345;BME280;46188;52.324;8.032;2023-05-22T12:05:56;100222.09;;;26.40;72.49
60345;BME280;46188;52.324;8.032;2023-05-22T12:08:22;100212.72;;;26.46;71.75
60345;BME280;46188;52.324;8.032;2023-05-22T12:10:49;100223.09;;;26.23;71.83
60345;BME280;46188;52.324;8.032;2023-05-22T12:13:21;100210.69;;;26.19;70.51
60345;BME280;46188;52.324;8.032;2023-05-22T12:15:46;100218.03;;;26.01;71.55
60345;BME280;46188;52.324;8.032;2023-05-22T12:18:12;100215.19;;;25.87;71.41
60345;BME280;46188;52.324;8.032;2023-05-22T12:20:41;100217.13;;;25.85;71.04
60345;BME280;46188;52.324;8.032;2023-05-22T12:23:20;100220.91;;;25.98;69.46
60345;BME280;46188;52.324;8.032;2023-05-22T12:25:46;100209.50;;;26.09;69.09
60345;BME280;46188;52.324;8.032;2023-05-22T12:28:11;100214.16;;;26.21;69.71
60345;BME280;46188;52.324;8.032;2023-05-22T12:30:40;100217.03;;;26.34;68.56
60345;BME280;46188;52.324;8.032;2023-05-22T12:33:12;100208.75;;;26.37;67.29
60345;BME280;46188;52.324;8.032;2023-05-22T12:35:40;100212.41;;;26.36;68.10
60345;BME280;46188;52.324;8.032;2023-05-22T12:38:06;100213.41;;;26.49;67.14
60345;BME280;46188;52.324;8.032;2023-05-22T12:40:31;100205.59;;;26.45;66.27
60345;BME280;46188;52.324;8.032;2023-05-22T12:42:56;100199.31;;;26.44;66.36
60345;BME280;46188;52.324;8.032;2023-05-22T12:45:22;100207.22;;;26.47;65.91
60345;BME280;46188;52.324;8.032;2023-05-22T12:47:47;100212.88;;;26.59;65.72
60345;BME280;46188;52.324;8.032;2023-05-22T12:50:12;100206.97;;;26.52;65.76
60345;BME280;46188;52.324;8.032;2023-05-22T12:52:37;100204.09;;;26.55;66.06